Time;durP1;ratioP1;P1;durP2;ratioP2;P2;SDS_P1;SDS_P2;PMS_P1;PMS_P2;Temp;Humidity;BMP_temperature;BMP_pressure;BME280_temperature;BME280_humidity;BME280_pressure;Samples;Min_cycle;Max_cycle;Signal;HPM_P1;HPM_P2
2023/04/20 00:02:22;;;;;;;8.25;4.28;;;;;;;15.09;69.79;100383.72;4917767;29;20130;-83
2023/04/20 00:05:16;;;;;;;6.68;4.47;;;;;;;14.98;70.51;100382.69;4902791;29;20047;-82
2023/04/20 00:08:08;;;;;;;7.03;4.38;;;;;;;14.94;70.98;100387.25;4899361;29;20047;-81
2023/04/20 00:11:02;;;;;;;6.03;4.67;;;;;;;14.77;72.06;100385.66;4892939;29;20068;-81
2023/04/20 00:13:57;;;;;;;14.80;5.55;;;;;;;14.85;72.87;100384.69;4902394;29;20051;-81
2023/04/20 00:16:52;;;;;;;11.35;5.22;;;;;;;14.63;74.09;100384.50;4909877;29;20154;-81
2023/04/20 00:19:46;;;;;;;9.07;4.93;;;;;;;14.60;74.66;100383.25;4895448;29;20045;-81
2023/04/20 00:22:39;;;;;;;9.45;5.28;;;;;;;14.67;74.02;100397.13;4900117;29;20060;-81
2023/04/20 00:25:31;;;;;;;9.40;6.55;;;;;;;14.64;75.01;100399.75;4887714;29;20067;-80
2023/04/20 00:28:25;;;;;;;10.63;7.13;;;;;;;14.70;73.53;100414.78;4900155;29;20055;-81
2023/04/20 00:31:20;;;;;;;12.20;7.60;;;;;;;14.76;73.93;100419.66;4896817;29;20036;-82
2023/04/20 00:34:14;;;;;;;11.33;7.57;;;;;;;14.79;73.11;100429.88;4903052;29;20044;-82
2023/04/20 00:37:09;;;;;;;9.67;6.83;;;;;;;14.71;72.42;100432.78;4884058;29;20158;-82
2023/04/20 00:40:01;;;;;;;12.57;5.30;;;;;;;14.78;71.47;100427.53;4881304;29;20067;-80
2023/04/20 00:42:56;;;;;;;14.23;8.32;;;;;;;14.73;71.50;100442.22;4895592;29;20523;-80
2023/04/20 00:45:50;;;;;;;8.82;6.88;;;;;;;14.85;71.04;100438.66;4895857;29;20044;-79
2023/04/20 00:48:45;;;;;;;6.38;5.00;;;;;;;14.79;72.01;100432.63;4883947;29;20068;-82
2023/04/20 00:51:39;;;;;;;6.90;5.10;;;;;;;14.76;71.47;100418.84;4886063;29;20075;-81
2023/04/20 00:54:35;;;;;;;10.83;6.77;;;;;;;14.72;71.18;100418.78;4897899;29;20312;-81
2023/04/20 00:57:29;;;;;;;9.43;6.75;;;;;;;14.68;71.37;100417.09;4899111;29;20060;-80
2023/04/20 01:00:22;;;;;;;12.07;6.90;;;;;;;14.71;71.42;100410.91;4901175;29;20048;-80
2023/04/20 01:03:16;;;;;;;12.45;6.18;;;;;;;14.68;70.75;100392.44;4896575;29;20037;-81
2023/04/20 01:06:13;;;;;;;7.90;5.95;;;;;;;14.70;71.07;100388.19;4897514;29;20508;-81
2023/04/20 01:09:08;;;;;;;7.22;5.20;;;;;;;14.55;71.17;100376.09;4897590;29;20055;-81
2023/04/20 01:12:04;;;;;;;9.52;5.68;;;;;;;14.48;72.30;100369.59;4906582;29;20052;-81
2023/04/20 01:14:56;;;;;;;10.70;6.22;;;;;;;14.50;71.56;100356.38;4899864;29;20047;-80
2023/04/20 01:17:51;;;;;;;11.13;6.00;;;;;;;14.48;71.05;100353.19;4892295;29;20060;-82
2023/04/20 01:20:45;;;;;;;10.20;5.43;;;;;;;14.39;70.78;100350.63;4918760;29;20044;-81
2023/04/20 01:23:40;;;;;;;9.80;4.32;;;;;;;14.47;70.34;100340.69;4902737;29;20423;-81
2023/04/20 01:26:34;;;;;;;10.10;5.10;;;;;;;14.41;70.68;100353.03;4899803;29;20534;-80
2023/04/20 01:29:29;;;;;;;10.23;5.07;;;;;;;14.47;70.01;100359.84;4893426;29;20056;-80
2023/04/20 01:32:21;;;;;;;7.18;4.40;;;;;;;14.48;70.01;100356.72;4884961;29;20064;-81
2023/04/20 01:35:16;;;;;;;5.72;4.22;;;;;;;14.39;70.50;100350.63;4896457;29;20118;-78
2023/04/20 01:38:08;;;;;;;6.18;4.25;;;;;;;14.36;70.11;100356.81;4906205;29;20702;-80
2023/04/20 01:41:03;;;;;;;9.38;5.18;;;;;;;14.45;70.16;100365.66;4902214;29;20440;-81
2023/04/20 01:43:57;;;;;;;9.40;4.90;;;;;;;14.48;70.25;100361.41;4908382;29;20052;-80
2023/04/20 01:46:52;;;;;;;5.13;3.70;;;;;;;14.46;70.04;100359.03;4894382;29;20527;-79
2023/04/20 01:49:46;;;;;;;5.68;4.10;;;;;;;14.38;70.54;100357.22;4897875;29;20047;-80
2023/04/20 01:52:40;;;;;;;4.50;3.33;;;;;;;14.20;71.62;100364.13;4898791;29;20043;-80
2023/04/20 01:55:32;;;;;;;5.73;3.73;;;;;;;14.28;70.66;100370.59;4898762;29;20308;-80
2023/04/20 01:58:27;;;;;;;8.15;4.45;;;;;;;14.38;70.81;100368.19;4895018;29;20063;-80
2023/04/20 02:01:22;;;;;;;13.37;4.97;;;;;;;14.38;70.59;100370.91;4901145;29;20043;-79
2023/04/20 02:04:16;;;;;;;5.85;3.03;;;;;;;14.33;71.39;100373.88;4917599;29;20277;-79
2023/04/20 02:07:11;;;;;;;8.52;5.00;;;;;;;14.34;70.77;100367.25;4909452;29;20535;-81
2023/04/20 02:10:06;;;;;;;7.05;4.60;;;;;;;14.23;72.59;100370.81;4903305;29;20056;-80
2023/04/20 02:13:00;;;;;;;6.60;3.97;;;;;;;14.29;71.98;100361.25;4884858;29;20036;-80
2023/04/20 02:15:56;;;;;;;8.23;5.43;;;;;;;14.32;71.95;100353.16;4897494;29;20346;-80
2023/04/20 02:18:51;;;;;;;9.38;5.28;;;;;;;14.03;73.01;100353.47;4894168;29;20048;-80
2023/04/20 02:21:46;;;;;;;7.80;5.50;;;;;;;14.15;73.26;100353.44;4882790;29;20052;-79
2023/04/20 02:24:40;;;;;;;7.85;5.88;;;;;;;14.22;72.84;100350.88;4880743;29;20072;-80
2023/04/20 02:27:35;;;;;;;8.25;4.88;;;;;;;14.29;72.79;100350.28;4908568;29;20052;-80
2023/04/20 02:30:29;;;;;;;10.23;4.88;;;;;;;14.46;71.87;100359.03;4883423;29;20052;-79
2023/04/20 02:33:24;;;;;;;8.10;6.27;;;;;;;14.50;71.68;100351.72;4885640;29;20043;-79
2023/04/20 02:36:18;;;;;;;6.13;4.33;;;;;;;14.57;71.41;100353.06;4898222;29;20296;-79
2023/04/20 02:39:13;;;;;;;12.70;5.90;;;;;;;14.52;71.48;100359.59;4914109;29;20055;-80
2023/04/20 02:42:07;;;;;;;11.10;5.93;;;;;;;14.54;71.47;100351.78;4901743;29;20044;-79
2023/04/20 02:45:02;;;;;;;10.75;6.25;;;;;;;14.45;72.07;100345.69;4900293;29;20071;-80
2023/04/20 02:47:56;;;;;;;5.43;4.60;;;;;;;14.45;71.97;100343.75;4895059;29;20414;-78
2023/04/20 02:50:49;;;;;;;9.38;4.88;;;;;;;14.50;71.66;100340.78;4901583;29;20051;-78
2023/04/20 02:53:44;;;;;;;8.98;5.80;;;;;;;14.48;71.29;100337.56;4868317;29;20511;-78
2023/04/20 02:56:43;;;;;;;9.65;5.40;;;;;;;14.42;71.21;100343.66;4894266;29;20055;-80
2023/04/20 02:59:38;;;;;;;7.20;5.53;;;;;;;14.37;70.47;100342.00;4903022;29;20043;-82
2023/04/20 03:02:37;;;;;;;8.98;5.43;;;;;;;14.27;71.42;100336.19;4912704;29;20055;-81
2023/04/20 03:05:31;;;;;;;7.90;5.63;;;;;;;14.35;71.08;100333.28;4901579;29;20520;-81
2023/04/20 03:08:26;;;;;;;11.48;5.07;;;;;;;14.35;70.24;100332.50;4900965;29;20063;-81
2023/04/20 03:11:21;;;;;;;9.52;4.82;;;;;;;14.29;70.69;100323.75;4896644;29;20052;-79
2023/04/20 03:14:17;;;;;;;9.10;5.47;;;;;;;14.33;69.98;100327.38;4909254;29;20051;-82
2023/04/20 03:17:11;;;;;;;7.28;5.15;;;;;;;14.38;69.41;100332.63;4898654;29;20047;-81
2023/04/20 03:20:06;;;;;;;7.70;5.37;;;;;;;14.19;70.02;100324.25;4900544;29;20047;-81
2023/04/20 03:23:00;;;;;;;11.20;5.50;;;;;;;14.19;70.65;100323.44;4906382;29;20703;-82
2023/04/20 03:25:55;;;;;;;9.38;5.18;;;;;;;14.22;70.16;100329.00;4892384;29;20485;-80
2023/04/20 03:28:59;;;;;;;6.28;4.57;;;;;;;14.25;70.08;100333.81;4905710;29;20542;-80
2023/04/20 03:31:54;;;;;;;5.35;3.88;;;;;;;14.29;70.51;100339.34;4876160;29;20056;-79
2023/04/20 03:34:49;;;;;;;6.97;4.85;;;;;;;14.18;70.66;100324.59;4900928;29;20039;-81
2023/04/20 03:37:43;;;;;;;6.53;3.95;;;;;;;14.21;70.76;100326.66;4890008;29;20424;-80
2023/04/20 03:40:38;;;;;;;8.15;5.25;;;;;;;14.24;70.44;100325.94;4897179;29;20047;-81
2023/04/20 03:43:32;;;;;;;5.97;4.03;;;;;;;14.22;70.45;100326.28;4896929;29;20064;-80
2023/04/20 03:46:27;;;;;;;6.05;4.35;;;;;;;14.26;70.13;100324.44;4889399;29;20281;-79
2023/04/20 03:49:24;;;;;;;7.63;5.13;;;;;;;14.31;69.83;100326.13;4909887;29;20412;-82
2023/04/20 03:52:19;;;;;;;5.75;4.60;;;;;;;14.35;69.41;100333.28;4890002;29;20118;-81
2023/04/20 03:55:14;;;;;;;5.72;4.03;;;;;;;14.35;69.26;100329.75;4882821;29;20047;-81
2023/04/20 03:58:12;;;;;;;7.97;5.40;;;;;;;14.33;69.78;100332.84;4887629;29;20523;-81
2023/04/20 04:01:16;;;;;;;8.88;5.70;;;;;;;14.36;69.78;100323.16;4918334;29;20052;-79
2023/04/20 04:04:12;;;;;;;9.77;5.72;;;;;;;14.25;70.84;100328.31;4898109;29;20064;-81
2023/04/20 04:07:07;;;;;;;8.07;5.65;;;;;;;14.18;70.96;100322.66;4897262;29;20055;-80
2023/04/20 04:10:04;;;;;;;7.18;5.07;;;;;;;14.24;70.66;100334.13;4910117;29;20067;-81
2023/04/20 04:12:59;;;;;;;11.50;5.45;;;;;;;14.20;71.05;100335.97;4891666;29;20047;-80
2023/04/20 04:15:53;;;;;;;8.95;5.90;;;;;;;14.10;71.86;100334.53;4899410;29;20059;-80
2023/04/20 04:18:46;;;;;;;9.73;6.03;;;;;;;14.10;72.11;100342.75;4891341;29;20425;-82
2023/04/20 04:21:41;;;;;;;9.32;5.05;;;;;;;13.83;73.86;100348.97;4904254;29;20043;-79
2023/04/20 04:24:36;;;;;;;36.13;15.40;;;;;;;13.91;73.27;100345.31;4910467;29;20448;-81
2023/04/20 04:27:33;;;;;;;10.80;7.03;;;;;;;13.90;74.12;100349.19;4898731;29;20041;-80
2023/04/20 04:30:28;;;;;;;20.00;8.30;;;;;;;13.96;73.56;100345.09;4880438;29;20051;-80
2023/04/20 04:33:23;;;;;;;8.37;5.67;;;;;;;14.04;73.33;100344.94;4915632;29;20415;-81
2023/04/20 04:36:17;;;;;;;8.60;5.93;;;;;;;13.93;74.55;100348.50;4899577;29;20048;-79
2023/04/20 04:39:09;;;;;;;10.77;7.45;;;;;;;13.93;74.27;100341.09;4898322;29;20067;-81
2023/04/20 04:42:03;;;;;;;12.40;7.53;;;;;;;14.02;74.29;100344.47;4880385;29;20040;-81
2023/04/20 04:45:03;;;;;;;23.42;9.43;;;;;;;14.09;73.89;100331.00;4908672;29;20044;-81
2023/04/20 04:47:58;;;;;;;13.23;8.00;;;;;;;14.07;74.01;100310.63;4922435;29;20067;-80
2023/04/20 04:50:53;;;;;;;9.45;6.05;;;;;;;14.06;74.70;100320.00;4900699;29;20416;-82
2023/04/20 04:53:45;;;;;;;14.43;7.47;;;;;;;14.11;74.71;100347.09;4902792;29;20040;-80
2023/04/20 04:56:39;;;;;;;12.82;8.43;;;;;;;14.05;75.45;100351.19;4890147;29;20040;-82
2023/04/20 04:59:34;;;;;;;14.90;9.70;;;;;;;14.06;75.72;100344.59;4914309;29;20044;-80
2023/04/20 05:02:28;;;;;;;16.83;9.75;;;;;;;14.06;75.97;100337.19;4913221;29;20504;-80
2023/04/20 05:05:20;;;;;;;16.02;9.48;;;;;;;14.09;75.70;100339.22;4893342;29;20531;-79
2023/04/20 05:08:15;;;;;;;11.57;8.50;;;;;;;13.93;76.14;100338.34;4894969;29;20571;-83
2023/04/20 05:11:07;;;;;;;;;;;;;;;14.05;76.31;100352.00;4911436;29;19926;-83
2023/04/20 05:13:59;;;;;;;;;;;;;;;14.10;76.26;100356.41;4903728;29;20391;-81
2023/04/20 05:16:51;;;;;;;;;;;;;;;14.17;76.24;100356.59;4899355;29;19923;-82
2023/04/20 05:19:43;;;;;;;;;;;;;;;14.16;76.22;100352.31;4902381;29;19919;-82
2023/04/20 05:22:36;;;;;;;;;;;;;;;14.16;76.64;100357.78;4915526;29;19924;-81
2023/04/20 05:25:25;;;;;;;;;;;;;;;14.19;76.31;100346.13;4884331;29;19924;-81
2023/04/20 05:28:17;;;;;;;;;;;;;;;14.21;76.30;100357.53;4882611;29;20368;-82
2023/04/20 05:31:09;;;;;;;;;;;;;;;14.13;77.34;100358.44;4901406;29;19928;-82
2023/04/20 05:34:01;;;;;;;;;;;;;;;14.16;77.16;100360.50;4903949;29;19923;-82
2023/04/20 05:36:53;;;;;;;;;;;;;;;14.20;77.44;100353.19;4899074;29;19919;-83
2023/04/20 05:39:48;;;;;;;;;;;;;;;14.27;77.01;100364.34;4900685;29;19919;-83
2023/04/20 05:42:41;;;;;;;;;;;;;;;14.34;76.41;100364.53;4898541;29;20324;-83
2023/04/20 05:45:33;;;;;;;;;;;;;;;14.37;76.28;100372.06;4886501;29;19919;-83
2023/04/20 05:48:25;;;;;;;;;;;;;;;14.37;76.47;100369.34;4897356;29;19920;-81
2023/04/20 05:51:17;;;;;;;;;;;;;;;14.40;76.50;100374.09;4881024;29;20380;-83
2023/04/20 05:54:09;;;;;;;;;;;;;;;14.39;76.14;100367.03;4900075;29;20357;-83
2023/04/20 05:56:58;;;;;;;;;;;;;;;14.39;76.07;100368.97;4904049;29;19919;-78
2023/04/20 05:59:50;;;;;;;;;;;;;;;14.42;75.92;100368.28;4900123;29;19930;-80
2023/04/20 06:02:42;;;;;;;;;;;;;;;14.86;74.23;100369.06;4900627;29;19942;-79
2023/04/20 06:05:34;;;;;;;;;;;;;;;15.18;73.53;100365.19;4909930;29;19927;-78
2023/04/20 06:08:27;;;;;;;;;;;;;;;15.26;71.01;100372.41;4885985;29;19920;-79
2023/04/20 06:11:16;;;;;;;;;;;;;;;15.07;70.30;100366.88;4903972;29;19923;-79
2023/04/20 06:14:06;;;;;;;;;;;;;;;15.09;70.21;100367.28;4898960;29;19919;-79
2023/04/20 06:16:55;;;;;;;;;;;;;;;15.23;69.05;100362.19;4897274;29;19920;-79
2023/04/20 06:19:47;;;;;;;;;;;;;;;15.07;68.85;100372.34;4893600;29;19920;-79
2023/04/20 06:22:42;;;;;;;;;;;;;;;14.92;69.46;100362.97;4900915;29;19927;-80
2023/04/20 06:25:37;;;;;;;;;;;;;;;14.96;67.81;100366.59;4908181;29;19920;-79
2023/04/20 06:28:29;;;;;;;;;;;;;;;15.05;67.02;100371.91;4900798;29;19920;-79
2023/04/20 06:31:21;;;;;;;;;;;;;;;14.76;67.98;100369.59;4885671;29;19927;-79
2023/04/20 06:34:11;;;;;;;;;;;;;;;14.88;68.41;100378.50;4918004;29;20339;-78
2023/04/20 06:37:03;;;;;;;;;;;;;;;15.02;68.50;100375.34;4907263;29;19919;-78
2023/04/20 06:39:58;;;;;;;;;;;;;;;14.87;68.77;100387.09;4901086;29;19919;-79
2023/04/20 06:42:50;;;;;;;;;;;;;;;15.01;67.68;100387.44;4891788;29;19924;-78
2023/04/20 06:45:42;;;;;;;;;;;;;;;15.13;66.45;100384.63;4899823;29;19923;-79
2023/04/20 06:48:34;;;;;;;;;;;;;;;15.02;67.56;100378.09;4918568;29;19919;-78
2023/04/20 06:51:26;;;;;;;;;;;;;;;16.15;64.70;100388.94;4908865;29;19919;-79
2023/04/20 06:54:16;;;;;;;;;;;;;;;16.13;63.08;100398.69;4900691;29;20386;-78
2023/04/20 06:57:05;;;;;;;;;;;;;;;16.67;61.81;100401.34;4909222;29;19919;-81
2023/04/20 06:59:57;;;;;;;;;;;;;;;16.74;61.11;100404.25;4924387;29;19919;-80
2023/04/20 07:02:52;;;;;;;;;;;;;;;16.73;60.11;100391.66;4896504;29;19927;-80
2023/04/20 07:05:44;;;;;;;;;;;;;;;16.87;60.54;100394.66;4907305;29;20302;-79
2023/04/20 07:08:36;;;;;;;;;;;;;;;17.10;60.53;100394.69;4911357;29;19920;-79
2023/04/20 07:11:30;;;;;;;;;;;;;;;17.00;60.53;100392.56;4900501;29;19919;-79
2023/04/20 07:14:22;;;;;;;;;;;;;;;17.11;59.81;100399.03;4916197;29;19923;-79
2023/04/20 07:17:14;;;;;;;;;;;;;;;16.97;58.10;100399.56;4879782;29;19919;-79
2023/04/20 07:20:06;;;;;;;;;;;;;;;16.46;59.98;100400.91;4894831;29;20408;-79
2023/04/20 07:22:58;;;;;;;;;;;;;;;16.72;59.08;100398.31;4901568;29;19924;-79
2023/04/20 07:25:50;;;;;;;;;;;;;;;16.78;60.63;100402.34;4910616;29;19919;-79
2023/04/20 07:28:42;;;;;;;;;;;;;;;16.54;59.36;100403.44;4902925;29;19919;-82
2023/04/20 07:31:34;;;;;;;;;;;;;;;16.41;59.37;100409.44;4912140;29;19920;-81
2023/04/20 07:34:23;;;;;;;;;;;;;;;16.49;59.00;100406.50;4907076;29;20407;-81
2023/04/20 07:37:16;;;;;;;;;;;;;;;16.38;59.43;100404.69;4926660;29;19920;-81
2023/04/20 07:40:07;;;;;;;;;;;;;;;16.19;60.43;100413.72;4895605;29;19919;-83
2023/04/20 07:43:00;;;;;;;;;;;;;;;15.72;61.27;100413.84;4908063;29;19923;-80
2023/04/20 07:45:51;;;;;;;;;;;;;;;15.53;62.09;100420.06;4911878;29;19923;-78
2023/04/20 07:48:43;;;;;;;;;;;;;;;15.72;61.77;100417.38;4912307;29;20422;-80
2023/04/20 07:51:35;;;;;;;;;;;;;;;15.85;61.39;100422.75;4926554;29;19919;-78
2023/04/20 07:54:27;;;;;;;;;;;;;;;15.55;62.14;100425.19;4919259;29;19919;-79
2023/04/20 07:57:19;;;;;;;;;;;;;;;15.72;61.72;100416.59;4922389;29;20371;-78
2023/04/20 08:00:11;;;;;;;;;;;;;;;15.93;60.80;100419.03;4912400;29;19920;-77
2023/04/20 08:03:03;;;;;;;;;;;;;;;15.69;61.25;100417.31;4929587;29;20390;-79
2023/04/20 08:05:53;;;;;;;;;;;;;;;16.03;60.51;100415.72;4902406;29;19927;-79
2023/04/20 08:08:45;;;;;;;;;;;;;;;16.27;59.61;100410.75;4915956;29;19919;-77
2023/04/20 08:11:37;;;;;;;;;;;;;;;16.48;58.82;100417.81;4904682;29;19927;-77
2023/04/20 08:14:29;;;;;;;;;;;;;;;16.43;58.97;100410.69;4908049;29;19920;-80
2023/04/20 08:17:21;;;;;;;;;;;;;;;16.60;58.25;100409.47;4889331;29;19919;-77
2023/04/20 08:20:11;;;;;;;;;;;;;;;16.34;58.12;100401.06;4888526;29;19923;-83
2023/04/20 08:23:03;;;;;;;;;;;;;;;16.50;58.13;100407.28;4917455;29;19923;-82
2023/04/20 08:25:55;;;;;;;;;;;;;;;16.73;58.15;100410.88;4970059;23;19926;-81
2023/04/20 08:28:45;;;;;;;;;;;;;;;16.68;58.50;100412.00;4960776;28;20594;-80
2023/04/20 08:31:35;;;;;;;;;;;;;;;16.64;57.22;100411.13;4969726;28;20381;-79
2023/04/20 08:34:27;;;;;;;;;;;;;;;16.75;58.35;100408.59;4975023;28;19919;-80
2023/04/20 08:37:17;;;;;;;;;;;;;;;16.66;57.58;100400.56;4948015;29;19918;-83
2023/04/20 08:40:09;;;;;;;;;;;;;;;16.74;58.57;100401.50;4934952;29;19920;-79
2023/04/20 08:42:58;;;;;;;;;;;;;;;16.71;58.47;100402.22;4943034;29;20417;-79
2023/04/20 08:45:48;;;;;;;;;;;;;;;16.65;58.48;100403.69;4949506;28;20310;-80
2023/04/20 08:48:38;;;;;;;;;;;;;;;16.57;58.71;100401.91;4938345;29;19934;-78
2023/04/20 08:51:31;;;;;;;;;;;;;;;16.32;58.14;100398.69;4937688;29;19922;-80
2023/04/20 08:54:21;;;;;;;;;;;;;;;16.40;57.73;100405.13;4945762;28;19923;-82
2023/04/20 08:57:10;;;;;;;;;;;;;;;16.55;58.43;100399.56;4948160;29;19918;-80
2023/04/20 09:00:01;;;;;;;;;;;;;;;16.53;57.93;100395.56;4942806;29;19923;-83
2023/04/20 09:02:57;;;;;;;;;;;;;;;16.15;58.54;100397.16;4947525;28;19931;-84
2023/04/20 09:05:47;;;;;;;;;;;;;;;16.41;58.04;100398.47;4955213;29;19930;-84
2023/04/20 09:08:37;;;;;;;;;;;;;;;16.63;57.65;100411.47;4946018;29;19923;-83
2023/04/20 09:11:27;;;;;;;;;;;;;;;16.46;58.63;100400.91;4944762;29;19919;-81
2023/04/20 09:14:19;;;;;;;;;;;;;;;16.48;57.31;100395.88;4976578;28;19919;-82
2023/04/20 09:17:13;;;;;;;;;;;;;;;16.18;58.53;100396.44;4964852;29;19919;-80
2023/04/20 09:20:05;;;;;;;;;;;;;;;16.88;57.53;100390.78;4936796;29;19918;-82
2023/04/20 09:22:57;;;;;;;;;;;;;;;17.14;56.51;100401.03;4948092;29;19927;-83
2023/04/20 09:25:51;;;;;;;;;;;;;;;17.23;55.29;100406.28;4948159;28;19923;-82
2023/04/20 09:58:03;;;;;;;;;;;;;;;15.90;58.26;100426.00;5275687;23;19933;-82
2023/04/20 10:00:55;;;;;;;;;;;;;;;15.94;58.35;100426.91;4955882;29;19926;-81
2023/04/20 10:03:47;;;;;;;;;;;;;;;15.55;59.44;100427.91;4955639;28;19922;-85
2023/04/20 10:06:39;;;;;;;;;;;;;;;15.58;59.53;100428.03;4936099;29;19919;-80
2023/04/20 10:09:31;;;;;;;;;;;;;;;15.79;59.27;100438.69;4949081;29;19937;-77
2023/04/20 10:12:23;;;;;;;;;;;;;;;15.74;59.20;100428.00;4946093;28;19918;-80
2023/04/20 10:15:15;;;;;;;;;;;;;;;15.94;58.93;100429.63;4951252;28;19919;-79
2023/04/20 10:18:16;;;;;;;;;;;;;;;16.07;59.21;100433.84;4951411;29;19922;-78
2023/04/20 10:21:08;;;;;;;;;;;;;;;16.00;59.23;100428.19;4942698;29;19919;-78
2023/04/20 10:24:01;;;;;;;;;;;;;;;15.86;59.42;100429.81;4943297;29;20401;-79
2023/04/20 10:26:53;;;;;;;;;;;;;;;16.02;59.84;100430.56;4944925;28;19918;-81
2023/04/20 10:29:45;;;;;;;;;;;;;;;15.96;59.28;100432.00;4958627;28;19918;-77
2023/04/20 10:32:34;;;;;;;;;;;;;;;15.82;59.59;100432.50;4941382;29;20385;-77
2023/04/20 10:35:26;;;;;;;;;;;;;;;15.77;59.38;100436.31;4950722;28;19918;-78
2023/04/20 10:38:28;;;;;;;;;;;;;;;15.58;59.38;100449.94;4948693;28;19926;-79
2023/04/20 10:41:20;;;;;;;;;;;;;;;15.58;60.49;100462.84;4952898;28;19922;-77
2023/04/20 10:44:12;;;;;;;;;;;;;;;15.45;60.39;100467.59;4957783;28;19952;-78
2023/04/20 10:47:04;;;;;;;;;;;;;;;15.41;62.39;100467.50;4939988;28;19923;-77
2023/04/20 10:50:06;;;;;;;;;;;;;;;15.47;64.07;100467.25;4954882;28;19922;-78
2023/04/20 10:52:56;;;;;;;;;;;;;;;15.50;65.48;100450.09;4948159;28;19923;-78
2023/04/20 10:55:48;;;;;;;;;;;;;;;15.51;66.81;100443.47;4962500;28;19918;-77
2023/04/20 10:58:39;;;;;;;;;;;;;;;15.64;66.93;100442.25;4941696;28;20385;-78
2023/04/20 11:01:32;;;;;;;;;;;;;;;15.61;66.30;100437.47;4966843;28;19918;-80
2023/04/20 11:04:31;;;;;;;;;;;;;;;15.69;66.58;100417.31;4941926;28;19922;-79
2023/04/20 11:07:23;;;;;;;;;;;;;;;15.62;66.99;100401.50;4968700;28;19918;-78
2023/04/20 11:10:15;;;;;;;;;;;;;;;15.61;66.93;100402.63;4958333;28;19918;-78
2023/04/20 11:13:07;;;;;;;;;;;;;;;15.59;67.08;100399.47;4939140;28;19938;-78
2023/04/20 11:15:59;;;;;;;;;;;;;;;15.80;66.36;100408.16;4961883;28;19919;-79
2023/04/20 11:18:57;;;;;;;;;;;;;;;15.52;66.28;100406.72;4938714;28;19927;-78
2023/04/20 11:21:49;;;;;;;;;;;;;;;15.58;66.77;100406.09;4970820;28;19922;-77
2023/04/20 11:24:40;;;;;;;;;;;;;;;15.93;65.76;100408.84;4961279;28;19922;-78
2023/04/20 11:27:32;;;;;;;;;;;;;;;15.90;65.87;100403.28;4952550;28;19918;-79
2023/04/20 11:30:24;;;;;;;;;;;;;;;15.68;66.76;100399.28;4951665;29;19919;-78
2023/04/20 11:33:16;;;;;;;;;;;;;;;15.30;67.21;100399.91;4966404;28;19923;-77
2023/04/20 11:36:08;;;;;;;;;;;;;;;15.43;67.70;100409.63;4948908;28;19918;-79
2023/04/20 11:39:08;;;;;;;;;;;;;;;15.71;67.08;100407.56;4946397;28;19923;-77
2023/04/20 11:42:00;;;;;;;;;;;;;;;15.72;67.41;100408.38;4957964;28;20305;-79
2023/04/20 11:44:52;;;;;;;;;;;;;;;15.49;67.12;100401.94;4957050;28;19922;-79
2023/04/20 11:47:45;;;;;;;;;;;;;;;15.68;66.80;100412.97;4951127;28;19918;-79
2023/04/20 11:50:37;;;;;;;;;;;;;;;15.59;66.45;100404.16;4945555;29;19922;-79
2023/04/20 11:53:29;;;;;;;;;;;;;;;15.31;66.85;100401.50;4946489;29;19918;-78
2023/04/20 11:56:21;;;;;;;;;;;;;;;15.38;66.89;100407.94;4946101;29;19919;-80
2023/04/20 11:59:13;;;;;;;;;;;;;;;15.25;67.81;100400.16;4957166;28;19918;-77
2023/04/20 12:02:05;;;;;;;;;;;;;;;15.45;67.19;100412.78;4957473;28;20300;-80
2023/04/20 12:04:57;;;;;;;;;;;;;;;15.21;67.40;100408.28;4940775;29;20302;-78
2023/04/20 12:07:49;;;;;;;;;;;;;;;15.25;66.91;100414.66;4938393;29;19919;-79
2023/04/20 12:10:41;;;;;;;;;;;;;;;15.30;67.74;100405.38;4953028;28;19918;-79
2023/04/20 12:13:33;;;;;;;;;;;;;;;15.15;67.63;100401.50;4965670;28;19919;-80
2023/04/20 12:16:25;;;;;;;;;;;;;;;15.20;67.62;100406.69;4973393;28;19918;-80
2023/04/20 12:19:15;;;;;;;;;;;;;;;15.41;67.61;100412.72;4954905;28;19919;-80
2023/04/20 12:22:07;;;;;;;;;;;;;;;15.61;66.44;100412.78;4961271;29;19918;-78
2023/04/20 12:24:59;;;;;;;;;;;;;;;15.61;66.91;100401.84;4965395;29;19922;-80
2023/04/20 12:27:51;;;;;;;;;;;;;;;15.58;66.42;100400.63;4962006;28;19923;-79
2023/04/20 12:30:43;;;;;;;;;;;;;;;15.79;66.20;100400.31;4967045;28;19918;-79
2023/04/20 12:33:35;;;;;;;;;;;;;;;15.94;65.00;100396.72;4985679;28;20389;-79
2023/04/20 12:36:27;;;;;;;;;;;;;;;16.05;65.04;100391.47;4966203;28;19922;-79
2023/04/20 12:39:20;;;;;;;;;;;;;;;16.21;64.37;100384.75;4962777;28;19919;-79
2023/04/20 12:42:09;;;;;;;;;;;;;;;16.33;64.31;100385.75;4965105;28;19918;-79
2023/04/20 12:45:01;;;;;;;;;;;;;;;16.43;63.62;100387.91;4963455;28;19923;-78
2023/04/20 12:47:53;;;;;;;;;;;;;;;16.82;62.24;100380.44;4957734;28;19919;-79
2023/04/20 12:50:46;;;;;;;;;;;;;;;17.32;59.98;100382.88;4964167;29;19919;-78
2023/04/20 12:53:35;;;;;;;;;;;;;;;17.46;60.01;100371.31;4963491;28;20393;-79
2023/04/20 12:56:27;;;;;;;;;;;;;;;17.19;60.09;100365.00;4965443;28;19919;-79
2023/04/20 12:59:19;;;;;;;;;;;;;;;17.41;59.45;100379.88;4956768;28;19926;-79
2023/04/20 13:02:09;;;;;;;;;;;;;;;19.39;52.44;100362.94;4955408;29;19918;-80
2023/04/20 13:04:58;;;;;;;;;;;;;;;19.92;50.11;100365.22;4955486;28;20397;-79
2023/04/20 13:07:52;;;;;;;;;;;;;;;19.12;52.67;100356.00;4957139;29;19926;-79
2023/04/20 13:10:41;;;;;;;;;;;;;;;19.29;52.09;100360.88;4947180;29;19919;-79
2023/04/20 13:13:33;;;;;;;;;;;;;;;19.04;53.84;100355.19;4955797;28;19938;-79
2023/04/20 13:16:25;;;;;;;;;;;;;;;18.15;55.80;100355.38;4959510;28;19918;-79
2023/04/20 13:19:17;;;;;;;;;;;;;;;17.68;57.33;100353.97;4958793;29;19918;-79
2023/04/20 13:22:09;;;;;;;;;;;;;;;17.63;58.36;100364.50;4946376;28;20333;-78
2023/04/20 13:25:00;;;;;;;;;;;;;;;17.54;57.14;100362.81;4959080;28;19926;-77
2023/04/20 13:27:52;;;;;;;;;;;;;;;17.20;58.42;100357.56;4961302;28;19919;-77
2023/04/20 13:30:44;;;;;;;;;;;;;;;17.08;58.70;100367.56;4957638;29;19918;-78
2023/04/20 13:33:36;;;;;;;;;;;;;;;17.33;58.84;100361.69;4946461;28;19919;-78
2023/04/20 13:36:28;;;;;;;;;;;;;;;17.78;57.76;100360.78;4973747;28;19918;-77
2023/04/20 13:39:20;;;;;;;;;;;;;;;17.74;57.28;100363.50;4944616;29;19922;-78
2023/04/20 13:42:12;;;;;;;;;;;;;;;17.41;58.40;100357.88;4964280;28;19918;-79
2023/04/20 13:45:04;;;;;;;;;;;;;;;17.02;59.52;100360.00;4943174;29;19923;-78
2023/04/20 13:47:56;;;;;;;;;;;;;;;16.91;58.64;100357.09;4945331;29;19919;-78
2023/04/20 13:50:48;;;;;;;;;;;;;;;16.96;60.54;100354.03;4944651;28;19922;-78
2023/04/20 13:53:40;;;;;;;;;;;;;;;16.85;60.45;100353.06;4951931;28;19926;-79
2023/04/20 13:56:31;;;;;;;;;;;;;;;17.05;60.83;100360.06;4966787;28;20396;-82
2023/04/20 13:59:23;;;;;;;;;;;;;;;16.95;60.10;100349.69;4955742;28;20409;-79
2023/04/20 14:02:13;;;;;;;;;;;;;;;16.63;60.48;100346.38;4947213;28;19919;-79
2023/04/20 14:05:05;;;;;;;;;;;;;;;16.78;60.76;100352.13;4970393;28;20392;-78
2023/04/20 14:07:57;;;;;;;;;;;;;;;16.94;60.36;100356.34;4963979;28;19919;-79
2023/04/20 14:10:48;;;;;;;;;;;;;;;16.86;60.08;100354.66;4967394;28;19922;-78
2023/04/20 14:13:40;;;;;;;;;;;;;;;16.56;61.08;100351.72;4967178;28;19918;-79
2023/04/20 14:16:32;;;;;;;;;;;;;;;16.52;60.40;100350.06;4962291;28;20312;-79
2023/04/20 14:19:22;;;;;;;;;;;;;;;16.38;61.27;100355.28;4958652;28;19922;-80
2023/04/20 14:22:11;;;;;;;;;;;;;;;16.40;61.36;100350.25;4962153;28;19918;-80
2023/04/20 14:25:03;;;;;;;;;;;;;;;16.32;61.56;100349.28;4945154;28;19922;-80
2023/04/20 14:27:55;;;;;;;;;;;;;;;16.19;61.77;100353.34;4956463;28;19918;-80
2023/04/20 14:30:48;;;;;;;;;;;;;;;16.39;62.14;100349.44;4965274;28;20401;-80
2023/04/20 14:33:40;;;;;;;;;;;;;;;16.24;62.04;100348.38;4949208;29;19977;-81
2023/04/20 14:36:29;;;;;;;;;;;;;;;16.17;60.95;100345.47;4953469;29;19918;-81
2023/04/20 14:39:22;;;;;;;;;;;;;;;16.03;61.40;100344.41;4944294;28;19929;-82
2023/04/20 14:42:12;;;;;;;;;;;;;;;16.55;60.85;100344.66;4972921;28;19918;-82
2023/04/20 14:45:04;;;;;;;;;;;;;;;16.39;60.53;100351.38;4958916;28;19934;-81